Time;durP1;ratioP1;P1;durP2;ratioP2;P2;SDS_P1;SDS_P2;PMS_P1;PMS_P2;Temp;Humidity;BMP_temperature;BMP_pressure;BME280_temperature;BME280_humidity;BME280_pressure;Samples;Min_cycle;Max_cycle;Signal;HPM_P1;HPM_P2
2022/06/20 00:01:38;;;;;;;4.55;2.08;;;;;;;23.42;47.13;99411.81;10408416;28;20508;-69
2022/06/20 00:06:39;;;;;;;3.78;1.80;;;;;;;23.40;47.49;99401.19;10414032;28;20106;-69
2022/06/20 00:11:46;;;;;;;6.18;1.90;;;;;;;23.40;47.08;99395.75;10401876;28;20064;-70
2022/06/20 00:16:48;;;;;;;5.13;1.77;;;;;;;23.35;47.45;99394.81;10417329;28;20131;-70
2022/06/20 00:21:49;;;;;;;3.72;1.73;;;;;;;23.23;47.46;99379.28;10409559;28;20053;-71
2022/06/20 00:26:50;;;;;;;3.50;1.98;;;;;;;23.14;47.24;99367.06;10413373;28;20575;-69
2022/06/20 00:31:52;;;;;;;5.22;1.70;;;;;;;23.02;47.95;99377.00;10411863;28;20087;-69
2022/06/20 00:36:53;;;;;;;5.30;1.40;;;;;;;;;;10414680;28;20052;-71
2022/06/20 00:41:55;;;;;;;4.63;1.60;;;;;;;22.66;48.09;99374.03;10411641;28;20049;-71
2022/06/20 00:47:03;;;;;;;6.75;2.15;;;;;;;22.53;48.74;99385.00;10450281;28;20273;-70
2022/06/20 00:52:17;;;;;;;5.45;1.55;;;;;;;22.48;48.63;99382.16;10419443;28;23129;-69
2022/06/20 00:57:25;;;;;;;4.15;1.58;;;;;;;22.32;48.80;99383.53;10377210;28;20052;-69
2022/06/20 01:02:33;;;;;;;5.32;2.50;;;;;;;22.04;49.33;99387.50;10405153;28;20156;-68
2022/06/20 01:07:50;;;;;;;7.50;1.90;;;;;;;21.88;49.42;99424.06;10407122;28;20044;-71
2022/06/20 01:13:01;;;;;;;2.90;1.20;;;;;;;21.76;49.51;99421.22;10406738;28;20509;-71
2022/06/20 01:18:05;;;;;;;3.47;1.05;;;;;;;21.88;49.26;99430.28;10410739;28;20042;-68
2022/06/20 01:23:49;;;;;;;4.07;1.52;;;;;;;21.94;48.68;99408.81;10396698;28;20063;-68
2022/06/20 01:28:56;;;;;;;4.88;1.58;;;;;;;21.88;48.80;99422.16;10414138;28;20063;-69
2022/06/20 01:34:00;;;;;;;7.80;1.67;;;;;;;21.83;49.15;99440.97;10404275;28;20132;-69
2022/06/20 01:39:02;;;;;;;3.28;1.70;;;;;;;21.54;49.46;99455.88;10414658;28;20053;-69
2022/06/20 01:44:05;;;;;;;5.50;1.70;;;;;;;21.59;49.47;99466.06;10415735;28;20062;-69
2022/06/20 01:49:16;;;;;;;6.53;1.42;;;;;;;21.63;48.95;99576.47;10414999;28;20053;-70
2022/06/20 01:54:19;;;;;;;3.80;1.60;;;;;;;21.11;50.14;99584.44;10415297;28;20053;-69
2022/06/20 01:59:31;;;;;;;2.85;1.30;;;;;;;21.24;50.48;99632.28;10408815;28;20052;-69
2022/06/20 02:04:35;;;;;;;4.30;1.33;;;;;;;21.43;50.46;99643.34;10410941;28;20054;-69
2022/06/20 02:09:37;;;;;;;5.75;1.40;;;;;;;21.55;49.94;99644.38;10423582;28;20171;-68
2022/06/20 02:14:44;;;;;;;3.72;1.08;;;;;;;21.49;50.36;99669.56;10405425;28;20056;-69
2022/06/20 02:19:49;;;;;;;4.20;1.73;;;;;;;21.61;49.99;99638.13;10410912;28;20123;-69
2022/06/20 02:24:56;;;;;;;4.00;1.45;;;;;;;21.63;50.17;99597.28;10397763;28;20046;-69
2022/06/20 02:29:59;;;;;;;5.13;1.60;;;;;;;21.53;50.97;99590.44;10404912;28;20072;-69
2022/06/20 02:35:01;;;;;;;6.50;2.08;;;;;;;21.47;51.63;99575.00;10396655;28;20107;-69
2022/06/20 02:40:07;;;;;;;3.83;1.70;;;;;;;21.67;51.20;99517.28;10402832;28;20140;-69
2022/06/20 02:45:11;;;;;;;4.53;1.50;;;;;;;21.80;51.10;99525.38;10399820;28;20044;-69
2022/06/20 02:50:17;;;;;;;4.50;1.48;;;;;;;21.82;50.78;99515.13;10402795;28;20081;-69
2022/06/20 02:55:19;;;;;;;6.03;1.77;;;;;;;21.78;50.87;99516.59;10432969;28;20262;-69
2022/06/20 03:00:28;;;;;;;4.97;1.90;;;;;;;21.61;51.00;99518.16;10409684;28;20503;-69
2022/06/20 03:05:29;;;;;;;5.40;1.88;;;;;;;21.65;50.58;99501.25;10401022;28;20097;-69
2022/06/20 03:10:39;;;;;;;6.80;1.73;;;;;;;21.51;51.33;99473.41;10408163;28;20059;-70
2022/06/20 03:15:43;;;;;;;4.20;1.42;;;;;;;21.57;51.37;99463.56;10408319;28;20045;-69
2022/06/20 03:20:46;;;;;;;5.18;1.48;;;;;;;21.50;50.97;99484.47;10399497;28;20058;-70
2022/06/20 03:25:48;;;;;;;5.83;1.87;;;;;;;21.50;51.06;99462.78;10410809;28;20056;-69
2022/06/20 03:30:51;;;;;;;4.50;1.40;;;;;;;21.63;50.87;99481.69;10407923;28;20061;-69
2022/06/20 03:35:55;;;;;;;;;;;;;;;21.66;50.66;99489.41;10410669;28;20045;-69
2022/06/20 03:40:57;;;;;;;;;;;;;;;21.68;50.44;99460.22;10410131;28;20362;-69
2022/06/20 03:46:01;;;;;;;3.85;1.00;;;;;;;21.70;50.13;99435.63;10399543;28;19991;-69
2022/06/20 03:51:16;;;;;;;3.38;1.40;;;;;;;21.59;50.19;99439.00;10402937;28;20133;-69
2022/06/20 03:56:50;;;;;;;3.22;1.17;;;;;;;21.49;50.46;99450.25;10410083;28;20045;-68
2022/06/20 04:02:01;;;;;;;4.10;1.17;;;;;;;21.46;50.55;99456.94;10404503;28;20190;-68
2022/06/20 04:07:37;;;;;;;4.78;1.40;;;;;;;21.45;50.56;99439.03;10404753;28;20707;-68
2022/06/20 04:12:46;;;;;;;3.30;1.42;;;;;;;21.45;50.90;99460.72;10411452;28;20503;-69
2022/06/20 04:23:26;;;;;;;2.92;1.00;;;;;;;21.38;50.92;99465.31;10416255;28;20373;-69
2022/06/20 04:28:37;;;;;;;2.88;1.40;;;;;;;21.43;50.65;99505.25;10414089;28;20044;-69
2022/06/20 04:33:45;;;;;;;2.42;1.02;;;;;;;21.46;51.42;99513.78;10415908;28;20049;-68
2022/06/20 04:38:58;;;;;;;6.30;1.67;;;;;;;21.54;51.00;99510.88;10410929;28;20060;-70
2022/06/20 04:44:09;;;;;;;3.53;1.38;;;;;;;21.61;50.59;99534.41;10398225;28;20055;-71
2022/06/20 04:49:14;;;;;;;3.50;1.38;;;;;;;21.64;50.53;99558.34;10402191;28;20789;-69
2022/06/20 04:54:20;;;;;;;3.58;1.30;;;;;;;21.24;51.02;99653.13;10409174;28;20128;-69
2022/06/20 04:59:27;;;;;;;2.65;1.70;;;;;;;20.82;52.25;99643.31;10407808;28;20053;-70
2022/06/20 05:04:33;;;;;;;3.70;1.20;;;;;;;20.83;53.40;99638.72;10409224;28;20051;-70
2022/06/20 05:10:01;;;;;;;4.00;1.30;;;;;;;21.11;52.83;99613.38;10428227;28;20053;-69
2022/06/20 05:15:20;;;;;;;2.75;0.95;;;;;;;21.22;53.05;99622.72;10413683;28;20048;-67
2022/06/20 05:20:33;;;;;;;4.13;1.40;;;;;;;21.35;52.71;99585.66;10407746;28;20072;-68
2022/06/20 05:25:37;;;;;;;2.83;1.42;;;;;;;21.43;52.77;99600.84;10401430;28;20048;-72
2022/06/20 05:30:41;;;;;;;3.55;1.55;;;;;;;21.49;52.03;99594.56;10403814;28;20351;-69
2022/06/20 05:35:49;;;;;;;3.08;1.48;;;;;;;21.52;52.42;99634.78;10422984;28;20148;-70
2022/06/20 05:40:59;;;;;;;6.55;1.70;;;;;;;21.55;52.34;99649.81;10395536;28;20284;-72
2022/06/20 05:46:28;;;;;;;4.90;1.58;;;;;;;21.52;52.11;99651.03;10397634;28;20130;-73
2022/06/20 05:51:35;;;;;;;2.63;1.60;;;;;;;21.54;52.37;99657.09;10368664;28;20053;-69
2022/06/20 05:56:44;;;;;;;4.22;1.50;;;;;;;21.60;53.08;99651.88;10402122;28;20275;-73
2022/06/20 06:01:46;;;;;;;4.32;1.70;;;;;;;21.73;54.54;99651.03;10400492;28;20474;-72
2022/06/20 06:06:52;;;;;;;4.85;4.22;;;;;;;21.76;55.90;99662.28;10408991;28;20100;-72
2022/06/20 06:12:05;;;;;;;5.88;1.73;;;;;;;21.70;56.26;99649.56;10401034;28;20707;-70
2022/06/20 06:17:21;;;;;;;5.33;1.67;;;;;;;21.27;57.51;99658.97;10410620;28;20783;-72
2022/06/20 06:22:46;;;;;;;2.60;1.67;;;;;;;21.46;57.12;99670.81;10396071;28;20050;-69
2022/06/20 06:27:50;;;;;;;3.50;1.65;;;;;;;21.57;57.60;99676.66;10386506;28;20632;-71
2022/06/20 06:32:58;;;;;;;4.70;1.90;;;;;;;21.61;55.95;99695.00;10392618;28;20063;-72
2022/06/20 06:38:04;;;;;;;4.07;1.60;;;;;;;21.59;58.20;99717.91;10392899;28;20405;-71
2022/06/20 06:43:19;;;;;;;5.80;1.98;;;;;;;21.62;59.70;99712.06;10394319;28;20893;-69
2022/06/20 06:48:59;;;;;;;4.63;2.13;;;;;;;21.65;60.34;99647.50;10388090;28;20100;-70
2022/06/20 06:54:15;;;;;;;6.88;2.05;;;;;;;21.74;60.95;99612.91;10369722;28;20089;-71
2022/06/20 06:59:34;;;;;;;8.18;2.50;;;;;;;21.85;61.30;99585.13;10366675;28;21069;-70
2022/06/20 07:04:45;;;;;;;5.22;2.58;;;;;;;21.85;60.91;99595.97;10377835;28;20045;-70
2022/06/20 07:09:50;;;;;;;3.88;2.05;;;;;;;21.62;63.00;99647.06;10392818;28;20419;-72
2022/06/20 07:15:22;;;;;;;5.35;2.00;;;;;;;21.63;61.90;99687.50;10391041;28;20051;-72
2022/06/20 07:20:30;;;;;;;6.28;2.00;;;;;;;21.59;62.02;99688.97;10396164;28;20110;-72
2022/06/20 07:25:36;;;;;;;4.63;2.10;;;;;;;21.60;63.01;99697.91;10400428;28;20182;-70
2022/06/20 07:30:44;;;;;;;4.65;2.97;;;;;;;21.57;63.41;99682.09;10389538;28;20056;-70
2022/06/20 07:35:51;;;;;;;5.95;2.20;;;;;;;21.50;63.43;99669.38;10385737;28;20106;-71
2022/06/20 07:41:00;;;;;;;6.15;2.10;;;;;;;21.49;63.58;99667.69;10386552;28;20044;-69
2022/06/20 07:46:39;;;;;;;4.50;2.20;;;;;;;21.67;64.12;99667.06;10383915;28;20052;-70
2022/06/20 07:51:47;;;;;;;4.32;2.00;;;;;;;21.78;64.06;99656.63;10336292;28;20080;-70
2022/06/20 07:56:53;;;;;;;5.03;2.13;;;;;;;21.79;63.53;99669.16;10387833;28;20053;-69
2022/06/20 08:02:17;;;;;;;4.60;2.10;;;;;;;21.75;63.96;99686.84;10389488;28;20158;-69
2022/06/20 08:07:27;;;;;;;3.90;2.10;;;;;;;21.74;64.43;99715.81;10387301;28;20060;-71
2022/06/20 08:12:54;;;;;;;3.83;2.10;;;;;;;21.77;63.85;99728.94;10395345;28;20067;-74
2022/06/20 08:17:57;;;;;;;5.32;2.03;;;;;;;21.72;63.94;99736.84;10389295;28;20535;-70
2022/06/20 08:23:09;;;;;;;6.80;2.40;;;;;;;21.63;64.72;99751.66;10392940;28;20057;-71
2022/06/20 08:28:20;;;;;;;4.78;2.58;;;;;;;21.62;64.98;99736.44;10390301;28;20101;-71
2022/06/20 08:33:25;;;;;;;5.75;2.50;;;;;;;21.65;66.08;99738.75;10388077;28;20045;-69
2022/06/20 08:38:29;;;;;;;2.70;2.40;;;;;;;21.71;65.82;99746.03;10395429;28;21249;-72
2022/06/20 08:43:45;;;;;;;4.55;2.40;;;;;;;21.58;66.41;99752.28;10395096;28;20602;-72
2022/06/20 08:49:09;;;;;;;6.47;2.10;;;;;;;21.66;65.22;99746.66;10394113;28;20056;-72
2022/06/20 08:54:44;;;;;;;3.17;2.40;;;;;;;21.68;65.39;99768.13;10389973;28;20415;-70
2022/06/20 09:00:01;;;;;;;4.45;2.17;;;;;;;21.62;65.61;99774.34;10387059;28;20131;-70
2022/06/20 09:05:15;;;;;;;4.40;2.42;;;;;;;21.13;66.49;99795.28;10387252;28;20772;-72
2022/06/20 09:10:36;;;;;;;;;;;;;;;21.10;68.97;99804.63;10390190;28;20061;-72
2022/06/20 09:15:48;;;;;;;4.65;2.42;;;;;;;21.02;67.68;99824.59;10393603;28;20011;-70
2022/06/20 09:21:21;;;;;;;1.52;0.80;;;;;;;21.03;66.92;99844.34;10394070;28;20053;-70
2022/06/20 09:26:33;;;;;;;0.50;0.50;;;;;;;20.97;65.69;99827.09;10397350;28;20037;-70
2022/06/20 09:32:04;;;;;;;2.20;0.98;;;;;;;21.16;65.41;99830.88;10388789;28;20052;-71
2022/06/20 09:37:25;;;;;;;0.82;0.70;;;;;;;21.27;65.13;99847.56;10390124;28;20067;-70
2022/06/20 09:42:37;;;;;;;0.90;0.50;;;;;;;21.13;64.67;99855.63;10390218;28;20056;-72
2022/06/20 09:47:50;;;;;;;0.77;0.35;;;;;;;21.15;64.07;99867.13;10386049;28;20430;-72
2022/06/20 09:53:10;;;;;;;0.80;0.40;;;;;;;21.32;63.25;99874.88;10391880;28;20048;-69
2022/06/20 09:58:49;;;;;;;0.47;0.47;;;;;;;21.04;62.29;99892.03;10393729;28;20458;-73
2022/06/20 10:04:06;;;;;;;0.43;0.30;;;;;;;20.75;62.99;99914.78;10399772;28;20174;-72
2022/06/20 10:09:14;;;;;;;1.65;0.30;;;;;;;20.56;63.43;99921.69;10394603;28;20470;-71
2022/06/20 10:14:30;;;;;;;1.30;0.40;;;;;;;20.74;62.07;99918.50;10346077;28;20072;-73
2022/06/20 10:19:31;;;;;;;0.88;0.60;;;;;;;20.87;61.94;99934.81;10388605;28;20087;-73
2022/06/20 10:24:57;;;;;;;1.00;0.65;;;;;;;20.86;61.37;99945.84;10387802;28;20244;-72
2022/06/20 10:30:44;;;;;;;3.17;0.90;;;;;;;20.69;61.96;99946.16;10391071;28;20246;-70
2022/06/20 10:35:54;;;;;;;0.82;0.82;;;;;;;20.16;62.27;99965.41;10393859;28;21423;-71
2022/06/20 10:41:19;;;;;;;1.23;1.13;;;;;;;20.22;62.20;99959.25;10392848;28;20458;-69
2022/06/20 10:46:41;;;;;;;1.15;0.80;;;;;;;20.29;61.62;99964.72;10392237;28;20045;-70
2022/06/20 10:52:02;;;;;;;1.63;1.00;;;;;;;20.40;60.73;99966.03;10388164;28;20045;-70
2022/06/20 10:57:22;;;;;;;1.15;0.90;;;;;;;20.04;63.06;99977.75;10394706;28;20045;-70
2022/06/20 11:02:38;;;;;;;1.17;0.80;;;;;;;20.02;62.63;99974.44;10387965;28;20144;-69
2022/06/20 11:08:08;;;;;;;1.50;0.70;;;;;;;20.09;62.99;99983.44;10387827;28;20048;-69
2022/06/20 11:13:31;;;;;;;1.23;0.65;;;;;;;20.39;62.26;99976.03;10387440;28;20053;-72
2022/06/20 11:19:01;;;;;;;0.98;0.32;;;;;;;20.67;61.19;99980.66;10392124;28;20391;-73
2022/06/20 11:24:05;;;;;;;2.30;0.40;;;;;;;20.76;60.19;99987.59;10414922;28;20048;-72
2022/06/20 11:29:47;;;;;;;1.27;0.50;;;;;;;20.53;63.78;99992.38;10390391;28;20053;-70
2022/06/20 11:35:04;;;;;;;0.52;0.17;;;;;;;20.40;65.94;100023.66;10386804;28;20464;-72
2022/06/20 11:40:36;;;;;;;0.43;0.28;;;;;;;20.31;65.67;100038.31;10394105;28;20050;-73
2022/06/20 11:45:48;;;;;;;0.80;0.20;;;;;;;19.59;68.48;100043.50;10391822;28;20155;-69
2022/06/20 11:50:59;;;;;;;1.25;0.20;;;;;;;19.79;67.24;100051.06;10382986;28;20527;-69
2022/06/20 11:56:30;;;;;;;0.52;0.15;;;;;;;19.74;67.83;100051.59;10390901;28;20427;-69
2022/06/20 12:02:00;;;;;;;1.48;0.25;;;;;;;19.59;69.74;100050.75;10385817;28;20053;-72
2022/06/20 12:07:16;;;;;;;1.63;0.45;;;;;;;19.69;68.48;100067.50;10385432;28;20073;-72
2022/06/20 12:12:43;;;;;;;0.68;0.30;;;;;;;19.72;69.11;100077.94;10392727;28;20040;-70
2022/06/20 12:18:13;;;;;;;1.20;0.20;;;;;;;20.02;67.10;100053.59;10395206;28;20459;-70
2022/06/20 12:23:24;;;;;;;1.42;0.30;;;;;;;20.30;64.94;100069.09;10394918;28;20142;-72
2022/06/20 12:28:47;;;;;;;0.98;0.25;;;;;;;20.10;67.04;100075.13;10397077;28;20159;-69
2022/06/20 12:33:52;;;;;;;2.10;0.50;;;;;;;20.29;63.95;100089.03;10394807;28;20556;-69
2022/06/20 12:38:59;;;;;;;0.40;0.20;;;;;;;20.31;63.40;100086.97;10395020;28;20064;-72
2022/06/20 12:44:30;;;;;;;1.20;0.22;;;;;;;20.23;62.42;100090.63;10391291;28;20059;-70
2022/06/20 12:50:10;;;;;;;1.85;0.82;;;;;;;20.42;62.02;100072.97;10389903;28;20167;-70
2022/06/20 12:55:28;;;;;;;0.73;0.15;;;;;;;20.75;61.15;100071.66;10353488;28;20420;-70
2022/06/20 13:00:54;;;;;;;1.20;0.15;;;;;;;20.72;58.14;100072.84;10393338;28;20052;-69
2022/06/20 13:06:37;;;;;;;1.05;0.20;;;;;;;20.78;56.73;100082.06;10396649;28;20059;-71
2022/06/20 13:11:57;;;;;;;0.38;0.17;;;;;;;20.70;56.71;100088.41;10390161;28;20049;-70
2022/06/20 13:17:16;;;;;;;0.82;0.20;;;;;;;20.52;56.19;100088.00;10392833;28;20060;-69
2022/06/20 13:22:45;;;;;;;0.30;0.10;;;;;;;20.47;56.39;100097.53;10389256;28;20132;-70
2022/06/20 13:27:56;;;;;;;0.70;0.20;;;;;;;20.66;56.08;100104.22;10392787;28;20052;-69
2022/06/20 13:33:08;;;;;;;0.43;0.28;;;;;;;20.23;56.46;100114.94;10383733;28;20146;-71
2022/06/20 13:38:17;;;;;;;2.17;0.32;;;;;;;20.30;56.71;100123.16;10391910;28;20064;-70
2022/06/20 13:43:24;;;;;;;0.40;0.20;;;;;;;20.45;55.89;100129.34;10391617;28;20052;-71
2022/06/20 13:48:41;;;;;;;0.50;0.20;;;;;;;20.48;54.88;100134.38;10393333;28;20053;-71
2022/06/20 13:54:18;;;;;;;1.45;0.50;;;;;;;19.87;56.21;100125.72;10396174;28;20868;-69
2022/06/20 13:59:30;;;;;;;2.70;0.20;;;;;;;20.35;54.84;100115.28;10408600;28;20059;-70
2022/06/20 14:04:33;;;;;;;0.88;0.30;;;;;;;20.66;50.89;100125.84;10403694;28;20059;-69
2022/06/20 14:09:42;;;;;;;2.42;0.20;;;;;;;20.34;50.97;100134.41;10392006;28;20048;-70
2022/06/20 14:14:49;;;;;;;0.57;0.10;;;;;;;20.43;48.86;100128.72;10385274;28;20109;-71
2022/06/20 14:19:54;;;;;;;0.82;0.10;;;;;;;20.49;49.68;100148.72;10389435;28;20127;-68
2022/06/20 14:24:56;;;;;;;0.55;0.20;;;;;;;20.47;48.19;100121.88;10394080;28;20052;-73
2022/06/20 14:30:03;;;;;;;1.40;0.20;;;;;;;20.36;47.22;100133.19;10393364;28;20069;-71
2022/06/20 14:35:23;;;;;;;0.47;0.20;;;;;;;20.16;47.71;100121.31;10391514;28;20053;-71
2022/06/20 14:40:31;;;;;;;1.17;0.20;;;;;;;20.02;48.07;100128.41;10386683;28;20118;-72
2022/06/20 14:45:38;;;;;;;1.77;0.52;;;;;;;19.93;49.06;100141.19;10390175;28;20059;-70
2022/06/20 14:50:55;;;;;;;1.13;0.30;;;;;;;19.94;48.57;100145.56;10381670;28;20045;-70
2022/06/20 14:56:06;;;;;;;1.10;0.68;;;;;;;19.82;50.25;100142.50;10391368;28;20488;-69
2022/06/20 15:01:19;;;;;;;0.93;0.30;;;;;;;19.75;49.37;100123.44;10393170;28;20063;-69
2022/06/20 15:06:31;;;;;;;2.55;0.80;;;;;;;20.03;49.77;100136.34;10404808;28;20078;-71
2022/06/20 15:11:52;;;;;;;2.70;0.85;;;;;;;20.45;47.93;100132.03;10410472;28;20195;-68
2022/06/20 15:17:19;;;;;;;1.15;0.38;;;;;;;20.61;47.32;100130.13;10387158;28;20510;-70
2022/06/20 15:22:34;;;;;;;1.20;0.40;;;;;;;20.66;46.92;100125.03;10387804;28;20110;-69
2022/06/20 15:27:47;;;;;;;3.00;0.82;;;;;;;20.75;46.81;100121.16;10395462;28;20049;-71
2022/06/20 15:32:51;;;;;;;1.48;0.40;;;;;;;20.89;46.17;100127.50;10388462;28;20049;-70
2022/06/20 15:37:55;;;;;;;2.08;0.52;;;;;;;20.59;46.82;100126.78;10388946;28;20057;-68
2022/06/20 15:43:09;;;;;;;3.30;0.50;;;;;;;20.74;46.77;100129.47;10390272;28;20048;-69
2022/06/20 15:48:20;;;;;;;1.52;0.60;;;;;;;20.89;45.86;100113.16;10396796;28;20842;-69
2022/06/20 15:53:36;;;;;;;1.85;0.90;;;;;;;20.58;46.47;100114.28;10388991;28;20147;-68
2022/06/20 15:59:10;;;;;;;4.60;1.02;;;;;;;20.44;47.84;100108.72;10386742;28;20049;-69
2022/06/20 16:04:19;;;;;;;2.40;0.60;;;;;;;20.68;47.10;100103.19;10387184;28;20143;-69
2022/06/20 16:09:52;;;;;;;32.50;17.70;;;;;;;20.70;47.28;100098.41;10376471;28;20296;-72
2022/06/20 16:15:22;;;;;;;3.95;1.65;;;;;;;20.79;46.76;100090.00;10367790;28;20167;-69
2022/06/20 16:20:31;;;;;;;3.13;1.33;;;;;;;20.84;47.51;100092.09;10385775;28;20104;-68
2022/06/20 16:25:34;;;;;;;3.35;1.10;;;;;;;20.66;48.77;100095.28;10388200;28;20059;-70
2022/06/20 16:30:38;;;;;;;4.65;1.60;;;;;;;20.59;49.46;100099.75;10387393;28;20055;-69
2022/06/20 16:35:41;;;;;;;6.72;2.92;;;;;;;20.42;48.59;100105.41;10385448;28;20057;-70
2022/06/20 16:40:48;;;;;;;3.80;2.25;;;;;;;20.37;48.73;100102.44;10381860;28;20049;-68
2022/06/20 16:45:58;;;;;;;3.78;2.15;;;;;;;20.34;49.44;100097.38;10398732;28;20583;-70
2022/06/20 16:51:23;;;;;;;3.30;2.05;;;;;;;20.05;49.05;100093.75;10389208;28;20088;-69
2022/06/20 16:56:32;;;;;;;4.20;2.72;;;;;;;20.02;50.20;100088.72;10383823;28;20043;-68
2022/06/20 17:01:40;;;;;;;3.40;1.90;;;;;;;20.14;50.30;100087.19;10391529;28;20490;-71
2022/06/20 17:07:20;;;;;;;3.78;1.65;;;;;;;20.19;49.97;100089.34;10396870;28;20150;-70
2022/06/20 17:12:49;;;;;;;3.13;1.70;;;;;;;20.22;50.35;100093.53;10407809;28;20067;-72
2022/06/20 17:18:26;;;;;;;7.57;2.05;;;;;;;20.21;51.07;100081.06;10402545;28;20164;-70
2022/06/20 17:23:50;;;;;;;2.80;1.90;;;;;;;20.18;50.36;100098.47;10385838;28;20499;-68
2022/06/20 17:29:01;;;;;;;;;;;;;;;20.09;50.04;100094.22;10391466;28;20511;-69
2022/06/20 17:34:38;;;;;;;3.10;1.90;;;;;;;20.14;51.22;100092.59;10389161;28;19931;-68
2022/06/20 17:39:53;;;;;;;3.33;2.40;;;;;;;20.19;51.00;100083.09;10391525;28;20081;-70
2022/06/20 17:45:00;;;;;;;5.03;2.80;;;;;;;20.16;51.17;100086.19;10387377;28;20056;-69
2022/06/20 17:50:05;;;;;;;3.90;2.47;;;;;;;20.26;50.93;100084.00;10392007;28;20143;-69
2022/06/20 17:55:12;;;;;;;2.85;1.88;;;;;;;20.24;50.97;100080.69;10389126;28;20170;-70
2022/06/20 18:00:21;;;;;;;3.53;2.35;;;;;;;20.20;51.06;100084.78;10391739;28;20069;-69
2022/06/20 18:05:29;;;;;;;4.38;2.58;;;;;;;20.17;51.58;100083.28;10385729;28;20245;-68
2022/06/20 18:10:40;;;;;;;4.95;2.45;;;;;;;20.12;50.86;100083.84;10371767;28;20052;-71
2022/06/20 18:16:04;;;;;;;3.60;1.77;;;;;;;20.15;51.10;100088.06;10383883;28;20059;-69
2022/06/20 18:21:07;;;;;;;;;;;;;;;20.09;51.62;100089.66;10381012;28;20056;-68
2022/06/20 18:26:14;;;;;;;4.77;2.20;;;;;;;20.09;51.59;100084.25;10409164;28;20015;-69
2022/06/20 18:31:20;;;;;;;5.70;2.65;;;;;;;20.04;51.28;100081.28;10388691;28;20143;-70
2022/06/20 18:36:25;;;;;;;3.50;2.40;;;;;;;20.06;51.81;100086.50;10399134;28;20049;-71
2022/06/20 18:41:27;;;;;;;6.90;3.35;;;;;;;20.01;52.01;100087.06;10395931;28;20298;-70
2022/06/20 18:46:31;;;;;;;5.70;2.50;;;;;;;19.94;51.94;100091.53;10393338;28;20109;-69
2022/06/20 18:51:33;;;;;;;3.13;2.25;;;;;;;19.92;51.93;100093.56;10391532;28;20514;-69
2022/06/20 18:57:09;;;;;;;3.42;2.90;;;;;;;19.76;51.78;100092.72;10394811;28;20709;-70
2022/06/20 19:02:25;;;;;;;4.25;2.58;;;;;;;19.56;51.98;100092.47;10390036;28;21444;-71
2022/06/20 19:07:46;;;;;;;3.90;2.70;;;;;;;19.35;53.18;100092.34;10393519;28;20499;-69
2022/06/20 19:12:56;;;;;;;3.72;2.60;;;;;;;19.31;53.41;100077.56;10393381;28;20114;-70
2022/06/20 19:18:16;;;;;;;2.47;1.92;;;;;;;19.34;53.43;100094.22;10388462;28;20183;-69
2022/06/20 19:23:42;;;;;;;5.22;2.50;;;;;;;19.34;54.07;100110.41;10342756;28;20231;-69
2022/06/20 19:28:52;;;;;;;3.80;2.65;;;;;;;19.26;54.68;100107.81;10393298;28;20171;-70
2022/06/20 19:34:04;;;;;;;3.60;2.45;;;;;;;19.19;55.79;100118.50;10394821;28;20045;-71
2022/06/20 19:39:09;;;;;;;3.97;3.25;;;;;;;19.13;57.01;100115.69;10394505;28;21059;-71
2022/06/20 19:44:31;;;;;;;4.82;3.40;;;;;;;19.16;56.76;100121.56;10412689;28;20067;-70
2022/06/20 19:49:41;;;;;;;6.90;4.43;;;;;;;19.04;56.13;100128.41;10396332;28;20178;-71
2022/06/20 19:54:46;;;;;;;4.10;3.70;;;;;;;19.00;56.66;100127.09;10393084;28;20049;-71
2022/06/20 19:59:49;;;;;;;5.75;4.18;;;;;;;19.00;58.84;100133.31;10401277;28;20073;-71
2022/06/20 20:05:03;;;;;;;5.00;3.75;;;;;;;19.08;58.34;100135.97;10419220;28;20112;-72
2022/06/20 20:10:10;;;;;;;6.32;4.55;;;;;;;19.11;58.44;100142.00;10421350;28;20041;-73
2022/06/20 20:15:14;;;;;;;6.43;4.65;;;;;;;19.09;58.13;100142.19;10425350;28;20077;-71
2022/06/20 20:20:15;;;;;;;5.80;4.70;;;;;;;19.02;58.89;100131.28;10359356;28;20046;-71
2022/06/20 20:25:32;;;;;;;4.68;4.28;;;;;;;19.02;58.89;100136.69;10375700;28;20114;-69
2022/06/20 20:31:02;;;;;;;6.65;5.40;;;;;;;18.99;58.77;100131.66;10403083;28;20069;-72
2022/06/20 20:36:27;;;;;;;4.95;3.95;;;;;;;18.95;58.97;100134.91;10394314;28;20052;-71
2022/06/20 20:41:48;;;;;;;5.38;4.00;;;;;;;18.93;59.42;100127.00;10395389;28;20483;-70
2022/06/20 20:47:16;;;;;;;8.35;5.03;;;;;;;18.91;59.12;100129.00;10401370;28;20509;-72
2022/06/20 20:52:23;;;;;;;5.80;4.18;;;;;;;18.88;57.99;100126.69;10439961;28;20033;-71
2022/06/20 20:57:37;;;;;;;4.68;3.58;;;;;;;18.85;58.29;100137.78;10416727;28;20045;-71
2022/06/20 21:02:42;;;;;;;4.97;3.70;;;;;;;18.73;58.59;100135.53;10402464;28;20760;-70
2022/06/20 21:07:46;;;;;;;6.72;4.38;;;;;;;18.78;59.04;100134.13;10401523;28;20836;-70
2022/06/20 21:12:52;;;;;;;5.75;4.40;;;;;;;18.85;58.61;100143.19;10400187;28;20642;-69
2022/06/20 21:18:09;;;;;;;6.07;4.55;;;;;;;18.85;58.88;100140.50;10439507;28;20521;-70
2022/06/20 21:23:11;;;;;;;6.85;5.07;;;;;;;18.82;59.12;100140.84;10400783;28;20435;-69
2022/06/20 21:28:13;;;;;;;5.68;4.90;;;;;;;18.83;59.33;100147.94;10399022;28;20499;-68
2022/06/20 21:33:16;;;;;;;6.13;4.68;;;;;;;18.81;59.26;100145.41;10398131;28;21183;-70
2022/06/20 21:38:24;;;;;;;7.15;4.30;;;;;;;18.84;59.47;100145.06;10404548;28;20056;-69
2022/06/20 21:43:26;;;;;;;5.95;4.82;;;;;;;18.79;57.81;100136.66;10391713;28;20103;-69
2022/06/20 21:48:30;;;;;;;4.65;3.78;;;;;;;18.78;58.61;100143.09;10397447;28;20203;-69
2022/06/20 21:53:41;;;;;;;4.40;3.97;;;;;;;18.75;59.16;100147.97;10404465;28;21716;-69
2022/06/20 21:59:15;;;;;;;5.78;3.97;;;;;;;18.70;58.20;100143.97;10410672;28;20560;-69
2022/06/20 22:04:27;;;;;;;;;;;;;;;18.61;58.26;100139.66;10408263;28;20059;-70
2022/06/20 22:09:34;;;;;;;4.53;3.72;;;;;;;18.50;58.38;100142.78;10409630;28;20018;-70
2022/06/20 22:14:43;;;;;;;6.95;4.30;;;;;;;18.45;58.93;100140.59;10399218;28;20552;-69
2022/06/20 22:19:49;;;;;;;5.50;3.65;;;;;;;18.43;59.18;100133.72;10413449;28;20115;-69
2022/06/20 22:24:50;;;;;;;4.72;4.22;;;;;;;18.41;59.21;100143.84;10413203;28;20325;-70
2022/06/20 22:29:56;;;;;;;6.15;4.75;;;;;;;18.30;59.20;100137.84;10402776;28;20077;-70
2022/06/20 22:35:07;;;;;;;6.97;4.10;;;;;;;18.30;59.74;100136.97;10419541;28;20435;-69
2022/06/20 22:40:15;;;;;;;5.43;3.60;;;;;;;18.18;59.17;100128.47;10413687;28;20521;-70
2022/06/20 22:45:33;;;;;;;5.10;4.15;;;;;;;18.11;59.75;100130.19;10409039;28;20052;-70
2022/06/20 22:50:45;;;;;;;5.22;3.75;;;;;;;18.14;60.62;100132.53;10410486;28;20049;-70
2022/06/20 22:55:56;;;;;;;5.10;3.97;;;;;;;18.12;59.55;100134.53;10405331;28;20490;-70
2022/06/20 23:01:35;;;;;;;8.13;4.53;;;;;;;18.00;60.37;100132.25;10409648;28;20268;-70
2022/06/20 23:06:37;;;;;;;7.10;5.60;;;;;;;17.94;61.15;100124.00;10406636;28;20124;-70
2022/06/20 23:11:38;;;;;;;5.45;5.00;;;;;;;17.89;61.08;100132.63;10408985;28;20116;-70
2022/06/20 23:22:06;;;;;;;7.07;5.38;;;;;;;17.86;61.31;100130.25;10409388;28;20060;-70
2022/06/20 23:27:08;;;;;;;6.55;5.97;;;;;;;17.71;61.86;100140.06;10405451;28;20205;-70
2022/06/20 23:32:36;;;;;;;7.85;5.70;;;;;;;17.73;61.98;100151.47;10406237;28;20137;-69
2022/06/20 23:37:42;;;;;;;5.63;5.13;;;;;;;17.59;62.02;100147.66;10400587;28;20063;-70
2022/06/20 23:42:43;;;;;;;5.72;5.00;;;;;;;17.37;62.18;100143.81;10404255;28;20047;-70
2022/06/20 23:47:44;;;;;;;5.65;5.13;;;;;;;17.20;62.60;100141.16;10403762;28;20602;-69
2022/06/20 23:52:46;;;;;;;6.00;5.15;;;;;;;17.24;62.90;100137.13;10407563;28;20049;-70
2022/06/20 23:57:59;;;;;;;5.00;4.50;;;;;;;17.35;62.04;100140.47;10407329;28;20053;-71
